アルジェ の空港の天気 - METARとTAF

ウアリ・ブーメディアン空港 ( DAAG / ALG ) - アルジェリア アルジェ
飛行場実況気象(Metar)
観測時間05/26 23:30 CET (05/26 22:30 UTC)
風向・風速東北東 4m/s
視程10km以上
天気現象
少しの雲 雲底高度 610m
気温19℃
湿度88%
気圧1022hPa
METARDAAG 262230Z 07007KT 9999 FEW020 19/17 Q1022
過去の天気等 Google飛行場航空写真 Wunderground天気予報

過去48時間のMETAR

飛行場予報(TAF)
発表時間: 5/26 18:00 CET (5/26 17:00 UTC)
予報対象時間: 26日19時 CET ~ 27日19時 CET
風向・風速東 6m/s
視程10km以上
少しの雲 雲底高度 790m
26日19時 CET ~ 26日22時 CET に 確率 30% で一時的に
少しの塔状積雲 雲底高度 910m
26日20時 CET ~ 26日23時 CET に徐々に
風向・風速不定 1m/s
26日23時 CET ~ 27日7時 CET に 確率 40% で一時的に
視程4000m
天気現象もや
全天の8割程度の雲 雲底高度 460m
27日4時 CET ~ 27日7時 CET に徐々に
風向・風速北東 5m/s
TAF DAAG 261700Z 2618/2718 08012KT 9999 FEW026
PROB30 TEMPO 2618/2621 FEW030TCU
BECMG 2619/2622 VRB02KT
PROB40 TEMPO 2622/2706 4000 BR BKN015
BECMG 2703/2706 04010KT